Time;durP1;ratioP1;P1;durP2;ratioP2;P2;SDS_P1;SDS_P2;PMS_P1;PMS_P2;Temp;Humidity;BMP_temperature;BMP_pressure;BME280_temperature;BME280_humidity;BME280_pressure;Samples;Min_cycle;Max_cycle;Signal;HPM_P1;HPM_P2
2022/09/12 02:43:21;;;;;;;8.35;4.17;;;;;;;9.68;92.39;98879.16;1799952;79;22486;-44
2022/09/12 02:45:47;;;;;;;8.75;3.77;;;;;;;9.67;91.98;98880.95;1760434;81;21105;-39
2022/09/12 02:48:30;;;;;;;8.98;4.70;;;;;;;9.69;92.02;98880.38;1760460;81;21063;-41
2022/09/12 02:50:57;;;;;;;4.47;3.80;;;;;;;9.70;93.04;98882.09;1760826;80;20983;-40
2022/09/12 02:53:25;;;;;;;6.20;4.23;;;;;;;9.70;92.84;98887.34;1760671;81;21051;-44
2022/09/12 02:55:51;;;;;;;5.33;3.65;;;;;;;9.70;92.81;98888.66;1760298;81;21059;-41
2022/09/12 02:58:24;;;;;;;13.18;4.15;;;;;;;9.69;93.06;98882.17;1760491;81;21034;-45
2022/09/12 03:01:02;;;;;;;10.88;4.30;;;;;;;9.74;92.06;98888.01;1761763;81;21535;-41
2022/09/12 03:03:54;;;;;;;7.85;4.37;;;;;;;9.75;93.05;98888.37;1719719;81;20991;-39
2022/09/12 03:06:40;;;;;;;6.00;3.80;;;;;;;9.76;92.15;98886.13;1760964;81;21023;-37
2022/09/12 03:09:34;;;;;;;6.67;3.80;;;;;;;9.75;92.27;98889.68;1761871;81;20960;-39
2022/09/12 03:12:20;;;;;;;8.08;4.22;;;;;;;9.73;92.52;98892.87;1761744;80;20995;-41
2022/09/12 03:15:09;;;;;;;7.87;4.47;;;;;;;9.71;91.92;98896.89;1761730;81;20983;-38
2022/09/12 03:17:59;;;;;;;13.00;3.75;;;;;;;9.67;91.86;98895.38;1761495;80;21574;-43
2022/09/12 03:20:48;;;;;;;5.72;3.95;;;;;;;9.69;92.42;98901.39;1713716;84;21075;-41
2022/09/12 03:23:25;;;;;;;7.97;4.92;;;;;;;9.63;93.26;98903.54;1713412;84;20983;-43
2022/09/12 03:26:02;;;;;;;6.65;4.10;;;;;;;9.56;93.54;98906.50;1713917;83;21019;-41
2022/09/12 03:28:29;;;;;;;6.90;4.10;;;;;;;9.56;92.71;98903.87;1714086;83;20971;-43
2022/09/12 03:30:55;;;;;;;8.70;4.25;;;;;;;9.56;93.28;98901.25;1714002;83;21055;-41
2022/09/12 03:33:24;;;;;;;5.40;3.80;;;;;;;9.53;93.91;98910.64;1713836;83;21007;-39
2022/09/12 03:35:51;;;;;;;5.97;4.72;;;;;;;9.57;93.19;98907.37;1713793;84;21022;-40
2022/09/12 03:38:17;;;;;;;8.95;4.30;;;;;;;9.56;93.58;98908.29;1713982;83;21081;-43
2022/09/12 03:40:43;;;;;;;9.50;3.85;;;;;;;9.58;93.00;98916.44;1713791;83;21484;-44
2022/09/12 03:43:10;;;;;;;14.73;4.47;;;;;;;9.56;93.46;98917.00;1707702;84;21015;-39
2022/09/12 03:45:36;;;;;;;9.53;4.80;;;;;;;9.55;92.74;98917.95;1706809;84;21003;-43
2022/09/12 03:48:03;;;;;;;9.68;4.20;;;;;;;9.57;93.36;98917.88;1706850;84;21046;-42
2022/09/12 03:50:29;;;;;;;9.95;4.30;;;;;;;9.61;92.51;98927.25;1706812;83;21003;-40
2022/09/12 03:53:00;;;;;;;6.72;3.77;;;;;;;9.55;92.90;98926.27;1706640;84;20976;-42
2022/09/12 03:55:26;;;;;;;7.10;4.08;;;;;;;9.55;93.28;98930.20;1712754;82;21062;-46
2022/09/12 03:57:53;;;;;;;9.95;4.60;;;;;;;9.56;93.88;98935.85;1753648;82;21047;-43
2022/09/12 04:00:19;;;;;;;7.50;4.10;;;;;;;9.63;93.17;98940.30;1753755;82;20995;-42
2022/09/12 04:02:44;;;;;;;11.28;4.25;;;;;;;9.65;92.64;98936.64;1753696;81;21484;-41
2022/09/12 04:05:10;;;;;;;14.20;5.00;;;;;;;9.64;93.09;98935.41;1753678;81;20990;-39
2022/09/12 04:07:36;;;;;;;8.55;4.72;;;;;;;9.57;92.75;98941.02;1753616;81;20983;-43
2022/09/12 04:10:02;;;;;;;6.83;4.47;;;;;;;9.62;92.64;98936.80;1753638;82;20979;-41
2022/09/12 04:12:28;;;;;;;7.95;4.47;;;;;;;9.57;94.34;98927.89;1753612;82;20994;-39
2022/09/12 04:14:54;;;;;;;6.67;4.97;;;;;;;9.58;94.70;98937.44;1753661;81;20983;-40
2022/09/12 04:17:20;;;;;;;6.35;4.65;;;;;;;9.59;94.05;98939.63;1753663;82;21030;-42
2022/09/12 04:19:45;;;;;;;8.33;4.58;;;;;;;9.61;95.03;98939.91;1753632;82;20983;-41
2022/09/12 04:22:11;;;;;;;9.25;5.10;;;;;;;9.67;94.34;98941.80;1753623;82;20978;-40
2022/09/12 04:24:37;;;;;;;5.65;4.87;;;;;;;9.69;94.06;98938.62;1753703;82;21488;-45
2022/09/12 04:27:03;;;;;;;10.08;4.47;;;;;;;9.71;93.90;98942.00;1753759;82;20971;-39
2022/09/12 04:29:30;;;;;;;11.55;5.08;;;;;;;9.67;95.31;98939.18;1753633;81;21540;-41
2022/09/12 04:31:56;;;;;;;11.10;5.42;;;;;;;9.72;94.27;98941.08;1753762;81;20987;-38
2022/09/12 04:34:22;;;;;;;6.90;4.65;;;;;;;9.77;93.91;98947.76;1753656;81;20967;-46
2022/09/12 04:36:48;;;;;;;14.68;5.25;;;;;;;9.79;93.73;98952.45;1753598;81;21030;-43
2022/09/12 04:39:13;;;;;;;9.00;4.58;;;;;;;9.74;95.01;98950.55;1753739;81;20964;-39
2022/09/12 04:41:42;;;;;;;6.45;4.85;;;;;;;9.75;93.91;98958.82;1752989;81;21437;-39
2022/09/12 04:44:13;;;;;;;14.83;5.17;;;;;;;9.77;94.25;98957.42;1748163;81;21516;-44
2022/09/12 04:46:44;;;;;;;8.13;5.20;;;;;;;9.77;95.13;98962.20;1748100;81;20960;-45
2022/09/12 04:49:11;;;;;;;8.98;5.37;;;;;;;9.84;94.34;98955.27;1748070;82;20999;-45
2022/09/12 04:51:39;;;;;;;7.45;4.33;;;;;;;9.78;95.86;98961.25;1748298;81;21042;-44
2022/09/12 04:54:15;;;;;;;7.50;4.87;;;;;;;9.75;97.01;98959.27;1748086;82;21480;-40
2022/09/12 04:56:45;;;;;;;9.48;4.42;;;;;;;9.83;95.90;98963.63;1748203;81;20991;-44
2022/09/12 04:59:13;;;;;;;6.50;4.42;;;;;;;9.85;96.42;98959.13;1748172;81;21004;-42
2022/09/12 05:01:39;;;;;;;7.12;3.85;;;;;;;9.82;96.49;98966.33;1748018;81;21417;-40
2022/09/12 05:04:05;;;;;;;7.85;4.20;;;;;;;9.92;95.34;98963.09;1748015;81;20972;-42
2022/09/12 05:06:35;;;;;;;11.53;4.20;;;;;;;9.93;95.60;98963.48;1748030;81;20957;-44
2022/09/12 05:09:03;;;;;;;8.68;4.03;;;;;;;9.92;95.62;98964.88;1748050;81;20984;-41
2022/09/12 05:11:32;;;;;;;10.82;4.15;;;;;;;9.92;95.69;98963.09;1748054;81;21433;-41
2022/09/12 05:13:58;;;;;;;6.00;4.22;;;;;;;9.93;96.22;98966.11;1748114;81;21521;-41
2022/09/12 05:16:27;;;;;;;7.05;3.77;;;;;;;9.98;95.94;98965.83;1748129;81;20987;-49
2022/09/12 05:18:55;;;;;;;7.92;4.25;;;;;;;9.98;96.12;98971.92;1748063;81;21022;-44
2022/09/12 05:21:24;;;;;;;12.03;4.05;;;;;;;10.09;95.88;98967.36;1748065;81;20992;-44
2022/09/12 05:23:54;;;;;;;7.92;3.75;;;;;;;10.15;95.73;98972.72;1748077;81;20991;-45
2022/09/12 05:26:21;;;;;;;11.63;3.52;;;;;;;10.13;95.84;98968.89;1747475;81;21019;-42
2022/09/12 05:28:48;;;;;;;;;;;;;;;10.20;95.82;98970.67;1750650;81;21756;-40
2022/09/12 05:31:22;;;;;;;7.10;4.08;;;;;;;10.27;94.78;98966.75;1748180;81;20109;-41
2022/09/12 05:33:50;;;;;;;10.23;3.37;;;;;;;10.28;94.98;98967.61;1747926;81;20980;-42
2022/09/12 05:36:21;;;;;;;9.60;4.05;;;;;;;10.27;95.19;98962.80;1748096;81;21461;-39
2022/09/12 05:38:47;;;;;;;12.90;4.08;;;;;;;10.34;94.26;98965.48;1746748;81;20976;-39
2022/09/12 05:41:19;;;;;;;7.87;3.58;;;;;;;10.33;94.65;98971.69;1748029;81;21520;-40
2022/09/12 05:43:48;;;;;;;6.37;4.03;;;;;;;10.38;93.83;98969.61;1759422;80;21042;-45
2022/09/12 05:46:17;;;;;;;6.47;3.50;;;;;;;10.41;94.62;98975.17;1761293;81;20984;-45
2022/09/12 05:48:46;;;;;;;9.53;3.75;;;;;;;10.49;93.98;98973.39;1761489;81;20964;-43
2022/09/12 05:51:19;;;;;;;4.35;3.08;;;;;;;10.41;94.88;98969.08;1761357;81;20999;-44
2022/09/12 05:53:48;;;;;;;5.22;3.55;;;;;;;10.49;94.34;98978.64;1761383;81;21027;-45
2022/09/12 05:56:18;;;;;;;6.92;3.50;;;;;;;10.50;94.16;98975.09;1761349;81;21136;-42
2022/09/12 05:58:46;;;;;;;6.05;3.45;;;;;;;10.54;93.91;98976.59;1761351;81;21018;-38
2022/09/12 06:01:18;;;;;;;6.65;3.25;;;;;;;10.58;94.17;98979.41;1760556;81;21503;-43
2022/09/12 06:03:51;;;;;;;5.67;3.33;;;;;;;10.58;94.23;98978.09;1760078;81;21309;-37
2022/09/12 06:06:21;;;;;;;7.90;4.33;;;;;;;10.54;94.78;98973.96;1760221;81;21055;-41
2022/09/12 06:08:50;;;;;;;14.20;4.05;;;;;;;10.60;94.75;98979.31;1760080;81;21022;-42
2022/09/12 06:11:24;;;;;;;11.00;3.98;;;;;;;10.68;94.34;98976.61;1759981;81;21456;-46
2022/09/12 06:13:51;;;;;;;4.85;3.33;;;;;;;10.65;94.41;98980.73;1761317;80;21042;-40
2022/09/12 06:16:21;;;;;;;7.42;3.65;;;;;;;10.78;93.88;98974.73;1761458;81;20964;-40
2022/09/12 06:18:54;;;;;;;11.20;3.47;;;;;;;10.86;93.94;98977.27;1761300;80;20986;-42
2022/09/12 06:21:21;;;;;;;5.15;3.30;;;;;;;10.94;93.42;98976.79;1761325;81;20999;-42
2022/09/12 06:23:48;;;;;;;9.75;3.98;;;;;;;10.99;93.52;98979.12;1761355;81;21034;-38
2022/09/12 06:26:16;;;;;;;8.37;3.13;;;;;;;11.12;93.02;98979.59;1761621;81;20999;-40
2022/09/12 06:28:44;;;;;;;10.58;3.15;;;;;;;11.23;92.64;98985.50;1761341;81;21034;-45
2022/09/12 06:31:14;;;;;;;6.90;3.67;;;;;;;11.31;92.23;98985.01;1761564;81;21541;-39
2022/09/12 06:33:43;;;;;;;6.58;2.77;;;;;;;11.32;91.98;98982.77;1761308;81;21359;-39
2022/09/12 06:36:20;;;;;;;4.87;2.77;;;;;;;11.35;91.75;98989.16;1761326;81;20996;-45
2022/09/12 06:38:47;;;;;;;9.53;3.35;;;;;;;11.27;91.35;98988.78;1761477;81;21559;-43
2022/09/12 06:41:14;;;;;;;5.22;3.08;;;;;;;11.39;91.60;98991.96;1761411;81;20991;-41
2022/09/12 06:43:41;;;;;;;7.85;3.15;;;;;;;11.45;91.17;98994.67;1761186;81;21062;-43
2022/09/12 06:46:09;;;;;;;8.38;3.17;;;;;;;11.49;91.05;98993.05;1761474;80;20983;-42
2022/09/12 06:48:35;;;;;;;3.90;2.98;;;;;;;11.40;90.88;98994.11;1761448;81;20991;-44
2022/09/12 06:51:14;;;;;;;3.30;3.00;;;;;;;11.58;90.61;98993.42;1761377;81;21504;-44
2022/09/12 06:53:42;;;;;;;10.48;4.00;;;;;;;11.61;90.38;98985.33;1761305;81;20999;-44
2022/09/12 06:56:19;;;;;;;7.17;3.08;;;;;;;11.78;90.29;99000.03;1761447;81;21038;-45
2022/09/12 06:58:46;;;;;;;6.65;2.92;;;;;;;11.83;89.70;98996.16;1761439;81;21563;-43
2022/09/12 07:01:17;;;;;;;;;;;;;;;11.87;89.69;98997.63;1763911;81;21143;-46
2022/09/12 07:03:49;;;;;;;11.12;2.85;;;;;;;11.89;89.33;99000.17;1761312;81;20123;-45
2022/09/12 07:06:18;;;;;;;6.50;2.50;;;;;;;11.94;88.91;98998.12;1760594;81;20960;-43
2022/09/12 07:08:44;;;;;;;5.20;2.67;;;;;;;12.04;88.65;98995.71;1761312;81;20979;-41
2022/09/12 07:11:20;;;;;;;5.40;2.47;;;;;;;12.09;88.30;99001.05;1761242;81;21026;-41
2022/09/12 07:13:50;;;;;;;5.60;2.62;;;;;;;12.15;88.37;98998.50;1761269;81;21032;-40
2022/09/12 07:16:16;;;;;;;5.03;2.87;;;;;;;12.22;87.57;99001.08;1761273;81;20995;-44
2022/09/12 07:18:42;;;;;;;7.13;2.60;;;;;;;12.25;87.28;99005.31;1761606;81;21023;-42
2022/09/12 07:21:14;;;;;;;8.65;2.30;;;;;;;12.34;87.51;99006.50;1761298;81;20987;-43
2022/09/12 07:23:41;;;;;;;7.12;2.65;;;;;;;12.41;86.76;99005.14;1761292;81;21070;-42
2022/09/12 07:26:09;;;;;;;;;;;;;;;12.51;86.52;99000.91;1764050;81;21441;-45
2022/09/12 07:28:35;;;;;;;7.37;2.50;;;;;;;12.63;86.12;99001.40;1761441;81;20129;-43
2022/09/12 07:31:16;;;;;;;6.50;2.50;;;;;;;12.73;85.86;99002.92;1761441;81;20972;-43
2022/09/12 07:33:43;;;;;;;7.87;2.47;;;;;;;12.86;86.04;99008.19;1744378;81;21140;-43
2022/09/12 07:36:15;;;;;;;11.70;2.60;;;;;;;12.85;84.87;99011.31;1761464;81;21496;-41
2022/09/12 07:38:42;;;;;;;5.58;2.10;;;;;;;12.91;85.02;99014.00;1761430;80;21468;-42
2022/09/12 07:41:22;;;;;;;;;;;;;;;12.91;84.84;99017.96;1764068;81;20983;-44
2022/09/12 07:43:51;;;;;;;3.58;2.15;;;;;;;12.91;84.00;99021.92;1761335;80;20120;-45
2022/09/12 07:46:17;;;;;;;2.85;2.40;;;;;;;12.92;84.52;99024.11;1761424;81;20990;-42
2022/09/12 07:48:44;;;;;;;9.53;2.50;;;;;;;12.94;84.23;99021.72;1761423;81;21019;-48
2022/09/12 07:51:10;;;;;;;3.12;2.05;;;;;;;12.99;83.75;99022.25;1761697;81;20979;-42
2022/09/12 07:53:39;;;;;;;6.50;2.37;;;;;;;12.97;82.94;99025.48;1761811;81;20994;-44
2022/09/12 07:56:09;;;;;;;4.08;2.70;;;;;;;12.96;82.79;99026.89;1761443;80;20995;-43
2022/09/12 07:58:37;;;;;;;7.05;2.47;;;;;;;13.05;83.25;99025.77;1760961;80;20959;-45
2022/09/12 08:01:11;;;;;;;3.72;1.67;;;;;;;13.11;83.40;99019.21;1760299;81;21427;-41
2022/09/12 08:03:42;;;;;;;5.33;2.08;;;;;;;13.23;81.54;99024.13;1724382;83;21025;-41
2022/09/12 08:06:12;;;;;;;12.25;2.30;;;;;;;13.30;81.33;99031.11;1724892;82;21332;-43
2022/09/12 08:08:39;;;;;;;5.78;2.30;;;;;;;13.32;80.77;99027.47;1690214;85;21060;-44
2022/09/12 08:11:09;;;;;;;2.75;2.00;;;;;;;13.33;80.23;99026.98;1742072;82;21007;-43
2022/09/12 08:13:38;;;;;;;3.75;1.57;;;;;;;13.41;80.61;99020.69;1742678;82;21030;-44
2022/09/12 08:16:10;;;;;;;8.00;1.90;;;;;;;13.40;79.12;99025.59;1742177;82;21067;-44
2022/09/12 08:18:37;;;;;;;3.85;2.02;;;;;;;13.54;79.99;99030.73;1741529;82;21027;-41
2022/09/12 08:21:06;;;;;;;6.53;1.90;;;;;;;13.69;80.19;99027.46;1741627;82;21543;-42
2022/09/12 08:23:33;;;;;;;4.08;2.10;;;;;;;13.79;78.99;99025.84;1743051;82;21035;-42
2022/09/12 08:26:02;;;;;;;5.50;1.72;;;;;;;13.96;78.07;99027.25;1725280;83;21004;-44
2022/09/12 08:28:29;;;;;;;5.30;1.90;;;;;;;13.97;74.71;99036.02;1725396;83;20971;-43
2022/09/12 08:31:09;;;;;;;5.10;1.35;;;;;;;14.10;74.80;99023.59;1690906;85;21498;-44
2022/09/12 08:33:34;;;;;;;4.40;1.95;;;;;;;14.21;74.18;99020.16;1717871;82;21523;-39
2022/09/12 08:36:17;;;;;;;1.75;1.60;;;;;;;14.33;73.58;99030.28;1743058;82;21035;-46
2022/09/12 08:38:45;;;;;;;3.40;1.50;;;;;;;14.34;70.38;99034.14;1743068;82;20996;-40
2022/09/12 08:41:34;;;;;;;7.50;1.62;;;;;;;14.48;71.28;99026.95;1743092;82;20960;-47
2022/09/12 08:44:28;;;;;;;8.98;1.47;;;;;;;14.57;70.36;99034.19;1737701;82;21028;-48
2022/09/12 08:47:17;;;;;;;3.83;1.40;;;;;;;14.73;71.04;99025.47;1733945;81;21016;-44
2022/09/12 08:50:12;;;;;;;2.02;1.40;;;;;;;14.86;70.06;99037.31;1734489;82;20960;-41
2022/09/12 08:52:58;;;;;;;3.27;1.60;;;;;;;14.89;70.44;99035.73;1734383;81;20968;-46
2022/09/12 08:55:34;;;;;;;1.75;1.30;;;;;;;14.94;70.27;99033.58;1734048;81;20992;-46
2022/09/12 08:58:15;;;;;;;6.33;1.67;;;;;;;14.94;71.14;99033.58;1734596;81;20992;-43
2022/09/12 09:01:16;;;;;;;4.08;1.67;;;;;;;14.94;70.63;99034.91;1734374;83;21004;-39
2022/09/12 09:04:14;;;;;;;6.00;1.95;;;;;;;15.07;69.72;99038.77;1733884;82;21008;-43
2022/09/12 09:07:19;;;;;;;6.65;1.98;;;;;;;15.20;70.42;99037.31;1734142;82;21011;-45
2022/09/12 09:10:25;;;;;;;2.42;1.80;;;;;;;15.13;66.90;99041.41;1733423;81;20957;-43
2022/09/12 09:13:02;;;;;;;4.70;1.77;;;;;;;15.27;67.75;99035.88;1734505;82;21461;-46
2022/09/12 09:15:34;;;;;;;;;;;;;;;15.51;69.17;99034.89;1736486;82;21000;-43
2022/09/12 09:18:21;;;;;;;2.58;1.40;;;;;;;15.57;65.61;99040.19;1733942;82;20440;-43
2022/09/12 09:21:10;;;;;;;2.80;1.05;;;;;;;15.71;66.73;99042.08;1717069;83;20983;-38
2022/09/12 09:23:42;;;;;;;3.15;1.45;;;;;;;15.77;65.17;99041.27;1773002;80;21018;-45
2022/09/12 09:26:40;;;;;;;6.42;1.55;;;;;;;15.68;63.85;99041.48;1783530;79;21033;-41
2022/09/12 09:29:26;;;;;;;6.53;2.10;;;;;;;15.67;65.84;99043.80;1753024;80;21027;-41
2022/09/12 09:31:56;;;;;;;2.70;1.50;;;;;;;15.50;65.22;99035.38;1738421;82;21377;-43
2022/09/12 09:34:34;;;;;;;5.20;1.57;;;;;;;15.57;65.73;99050.29;1704058;84;21505;-45
2022/09/12 09:37:19;;;;;;;2.90;1.40;;;;;;;15.29;62.85;99041.89;1697307;83;21003;-44
2022/09/12 09:40:02;;;;;;;8.15;1.25;;;;;;;15.22;64.03;99035.39;1699150;84;20999;-42
2022/09/12 09:43:07;;;;;;;3.17;1.60;;;;;;;15.19;63.68;99051.55;1698379;84;21477;-42
2022/09/12 09:45:32;;;;;;;3.00;1.77;;;;;;;15.24;64.15;99040.08;1698436;84;21007;-44
2022/09/12 09:48:22;;;;;;;2.87;1.47;;;;;;;15.40;64.80;99038.89;1699081;84;21090;-47
2022/09/12 09:50:49;;;;;;;5.42;1.27;;;;;;;15.65;63.88;99033.80;1699008;84;21516;-48
2022/09/12 09:53:34;;;;;;;2.98;1.40;;;;;;;16.20;59.22;99040.41;1699301;84;21047;-42
2022/09/12 09:56:06;;;;;;;2.77;1.22;;;;;;;16.49;61.58;99049.93;1699136;84;21019;-46
2022/09/12 09:58:34;;;;;;;1.47;1.05;;;;;;;16.81;61.08;99039.25;1693497;83;21007;-41
2022/09/12 10:01:04;;;;;;;6.95;1.37;;;;;;;17.31;61.04;99033.22;1698956;84;21052;-45
2022/09/12 10:03:34;;;;;;;4.70;1.17;;;;;;;17.24;58.67;99040.05;1699237;84;21031;-43
2022/09/12 10:06:07;;;;;;;5.90;1.10;;;;;;;17.81;59.75;99041.70;1691669;84;21059;-46
2022/09/12 10:08:36;;;;;;;1.47;1.07;;;;;;;18.25;53.59;99032.05;1699011;84;21055;-51
2022/09/12 10:11:07;;;;;;;4.70;1.17;;;;;;;19.23;56.06;99039.36;1698839;83;21961;-42
2022/09/12 10:13:46;;;;;;;2.60;1.37;;;;;;;20.29;57.98;99050.44;1699060;84;21007;-42
2022/09/12 10:16:23;;;;;;;4.58;1.22;;;;;;;20.69;53.62;99045.95;1693838;84;21027;-38
2022/09/12 10:19:43;;;;;;;2.98;1.20;;;;;;;21.64;53.23;99035.28;1855159;77;22976;-42
2022/09/12 10:22:17;;;;;;;5.75;1.50;;;;;;;21.38;48.65;99039.34;1828594;78;21586;-53
2022/09/12 10:24:51;;;;;;;4.25;1.12;;;;;;;21.41;50.19;99048.39;1827439;78;20963;-43
2022/09/12 10:27:31;;;;;;;2.20;1.20;;;;;;;21.66;49.08;99048.50;1828854;78;20970;-43
2022/09/12 10:30:08;;;;;;;7.28;1.30;;;;;;;21.77;44.23;99041.51;1828415;78;21574;-45
2022/09/12 10:32:37;;;;;;;;;;;;;;;22.24;46.46;99048.14;1829322;78;21372;-47
2022/09/12 10:35:16;;;;;;;3.22;1.10;;;;;;;22.50;43.66;99041.30;1828620;78;20117;-50
2022/09/12 10:37:56;;;;;;;2.47;1.00;;;;;;;22.42;45.71;99044.00;1828663;78;21020;-48
2022/09/12 10:40:26;;;;;;;3.20;1.10;;;;;;;22.11;43.15;99055.31;1810573;78;20971;-45
2022/09/12 10:42:58;;;;;;;1.65;1.00;;;;;;;22.28;43.17;99047.34;1827556;78;21491;-47
2022/09/12 10:45:34;;;;;;;3.37;1.00;;;;;;;22.68;43.10;99049.17;1828578;78;20994;-46
2022/09/12 10:48:20;;;;;;;3.15;1.20;;;;;;;22.43;41.77;99048.37;1828014;78;20963;-54
2022/09/12 10:50:45;;;;;;;1.57;1.17;;;;;;;21.55;42.78;99048.80;1828993;78;21048;-46
2022/09/12 10:53:22;;;;;;;7.60;1.10;;;;;;;20.56;41.54;99070.04;1828907;78;20987;-45
2022/09/12 10:56:18;;;;;;;3.08;1.12;;;;;;;20.51;43.43;99059.80;1828377;78;21531;-41
2022/09/12 10:59:27;;;;;;;1.63;1.00;;;;;;;21.15;43.54;99061.78;1829240;78;21033;-48
2022/09/12 11:02:29;;;;;;;2.65;1.30;;;;;;;21.86;42.57;99051.74;1829214;78;21228;-52
2022/09/12 11:05:37;;;;;;;3.12;1.00;;;;;;;22.47;42.03;99048.87;1829120;78;20956;-43
2022/09/12 11:08:31;;;;;;;2.87;1.05;;;;;;;22.83;40.13;99062.76;1829127;78;21006;-49
2022/09/12 11:11:17;;;;;;;2.12;1.00;;;;;;;22.16;39.86;99065.04;1829172;78;20986;-48
2022/09/12 11:14:20;;;;;;;2.92;1.10;;;;;;;21.92;40.69;99060.48;1727886;83;21488;-47
2022/09/12 11:17:16;;;;;;;1.05;0.90;;;;;;;23.05;40.53;99066.61;1727492;83;21044;-46
2022/09/12 11:20:31;;;;;;;3.30;1.13;;;;;;;23.40;39.76;99065.02;1726551;83;21212;-49
2022/09/12 11:23:23;;;;;;;4.33;1.20;;;;;;;23.26;38.17;99062.02;1727062;83;21715;-40
2022/09/12 11:26:03;;;;;;;4.12;1.05;;;;;;;23.32;38.51;99062.69;1715698;83;21107;-44
2022/09/12 11:28:46;;;;;;;2.65;1.42;;;;;;;22.70;38.68;99069.11;1727101;83;21035;-48
2022/09/12 11:31:36;;;;;;;3.70;1.22;;;;;;;22.57;37.50;99060.24;1727066;83;21589;-48
2022/09/12 11:34:09;;;;;;;4.50;1.40;;;;;;;23.05;37.01;99057.22;1727140;83;21073;-49
2022/09/12 11:37:12;;;;;;;6.67;1.22;;;;;;;24.44;37.93;99055.71;1725791;83;22192;-48
2022/09/12 11:39:39;;;;;;;1.30;0.75;;;;;;;25.14;36.78;99059.16;1727048;83;21008;-45
2022/09/12 11:42:11;;;;;;;5.22;1.10;;;;;;;24.42;35.95;99065.81;1725712;83;21116;-43
2022/09/12 11:44:45;;;;;;;3.22;1.05;;;;;;;24.18;36.08;99059.28;1725474;83;21168;-42
2022/09/12 11:47:12;;;;;;;5.28;1.00;;;;;;;24.13;35.93;99055.77;1740735;78;21078;-46
2022/09/12 11:49:50;;;;;;;1.52;0.90;;;;;;;24.56;33.94;99062.89;1828461;78;21002;-47
2022/09/12 11:52:26;;;;;;;1.30;1.20;;;;;;;23.91;34.69;99055.56;1828231;78;20974;-51
2022/09/12 11:55:16;;;;;;;2.62;1.12;;;;;;;23.17;36.16;99056.34;1827443;78;21531;-51
2022/09/12 11:57:50;;;;;;;0.88;0.80;;;;;;;22.28;37.15;99062.06;1828180;78;21002;-39
2022/09/12 12:00:43;;;;;;;11.53;1.30;;;;;;;23.05;38.04;99069.77;1828148;78;21096;-51
2022/09/12 12:03:42;;;;;;;2.85;0.90;;;;;;;23.84;34.82;99063.16;1828583;78;21038;-53
2022/09/12 12:06:21;;;;;;;1.17;0.95;;;;;;;24.97;33.43;99063.02;1828642;78;20995;-48
2022/09/12 12:08:49;;;;;;;3.05;1.00;;;;;;;26.05;33.06;99051.66;1828281;78;21495;-47
2022/09/12 12:11:32;;;;;;;3.62;1.10;;;;;;;26.89;33.28;99058.79;1827630;78;21061;-50
2022/09/12 12:14:04;;;;;;;1.50;0.80;;;;;;;27.20;32.12;99055.15;1828122;78;21034;-50
2022/09/12 12:16:36;;;;;;;1.65;0.80;;;;;;;27.80;30.98;99060.05;1825742;78;20988;-40
2022/09/12 12:19:08;;;;;;;1.20;0.93;;;;;;;28.34;30.43;99057.83;1821738;78;21044;-52
2022/09/12 12:21:51;;;;;;;0.70;0.70;;;;;;;28.18;28.65;99054.16;1811387;79;20996;-40
2022/09/12 12:24:24;;;;;;;1.07;0.72;;;;;;;28.90;28.50;99066.61;1816898;79;21481;-49
2022/09/12 12:27:08;;;;;;;4.85;1.10;;;;;;;28.61;27.32;99061.09;1816432;79;21545;-47
2022/09/12 12:29:43;;;;;;;1.50;0.98;;;;;;;28.76;27.94;99060.89;1811397;78;20965;-49
2022/09/12 12:32:18;;;;;;;2.45;1.10;;;;;;;29.17;26.97;99055.78;1815174;78;21613;-41
2022/09/12 12:34:46;;;;;;;1.70;1.00;;;;;;;29.43;28.08;99063.86;1816897;79;21253;-48
2022/09/12 12:37:28;;;;;;;1.98;1.10;;;;;;;29.04;26.64;99068.27;1794382;79;21047;-44
2022/09/12 12:40:07;;;;;;;1.50;1.07;;;;;;;27.31;26.25;99064.59;1815893;79;21031;-47
2022/09/12 12:42:39;;;;;;;0.80;0.80;;;;;;;26.29;29.22;99057.72;1816745;79;21011;-45
2022/09/12 12:45:19;;;;;;;1.82;1.00;;;;;;;25.74;29.17;99060.47;1816692;79;20973;-46
2022/09/12 12:47:51;;;;;;;2.05;0.90;;;;;;;26.44;27.39;99056.30;1816747;79;21009;-38
2022/09/12 12:50:25;;;;;;;2.80;1.30;;;;;;;27.01;28.44;99061.24;1816988;79;20976;-51
2022/09/12 12:53:02;;;;;;;1.37;1.10;;;;;;;26.31;29.40;99050.79;1816706;79;21071;-48
2022/09/12 12:55:36;;;;;;;11.88;1.20;;;;;;;25.33;30.28;99063.69;1816802;79;21043;-57
2022/09/12 12:58:09;;;;;;;1.32;0.82;;;;;;;25.33;29.71;99059.65;1816684;79;20989;-42
2022/09/12 13:00:38;;;;;;;1.85;1.00;;;;;;;26.37;29.82;99063.48;1813420;79;21052;-44
2022/09/12 13:03:21;;;;;;;8.35;1.12;;;;;;;27.06;28.60;99057.44;1816447;79;21040;-42
2022/09/12 13:05:51;;;;;;;1.60;0.88;;;;;;;27.23;29.04;99052.55;1814294;79;21529;-44
2022/09/12 13:08:26;;;;;;;1.30;0.95;;;;;;;26.33;29.82;99063.03;1817100;79;20986;-44
2022/09/12 13:10:58;;;;;;;0.80;0.80;;;;;;;26.37;29.18;99058.92;1816700;79;20981;-50
2022/09/12 13:13:41;;;;;;;4.37;1.85;;;;;;;25.38;30.58;99065.31;1815195;79;20986;-42
2022/09/12 13:16:11;;;;;;;2.75;1.95;;;;;;;24.50;31.75;99059.04;1815257;79;21534;-42
2022/09/12 13:18:49;;;;;;;4.80;1.32;;;;;;;25.62;30.17;99060.14;1793450;79;21041;-46
2022/09/12 13:21:18;;;;;;;2.67;1.02;;;;;;;26.49;29.75;99060.59;1816252;79;21012;-52
2022/09/12 13:24:01;;;;;;;3.33;1.02;;;;;;;27.03;29.16;99056.48;1815849;79;21624;-35
2022/09/12 13:26:33;;;;;;;1.55;1.00;;;;;;;27.56;28.72;99055.48;1815963;79;21969;-37
2022/09/12 13:29:12;;;;;;;1.17;0.90;;;;;;;27.49;28.38;99047.86;1816658;79;20973;-45
2022/09/12 13:31:40;;;;;;;1.20;0.80;;;;;;;27.88;27.33;99046.88;1816101;79;20996;-42
2022/09/12 13:34:08;;;;;;;4.28;1.65;;;;;;;28.12;27.54;99046.36;1816226;79;20929;-43
2022/09/12 13:36:56;;;;;;;3.40;0.90;;;;;;;28.46;26.67;99053.16;1822538;79;21003;-46
2022/09/12 13:39:50;;;;;;;1.27;0.90;;;;;;;27.97;27.00;99051.09;1822502;78;21020;-43
2022/09/12 13:42:47;;;;;;;1.95;0.90;;;;;;;26.41;28.14;99055.33;1822302;79;20976;-47
2022/09/12 13:45:21;;;;;;;1.25;0.90;;;;;;;24.91;29.83;99050.63;1822499;79;20985;-46
2022/09/12 13:47:58;;;;;;;3.95;0.78;;;;;;;24.41;30.86;99049.34;1822671;79;20985;-43
2022/09/12 13:50:51;;;;;;;1.42;1.02;;;;;;;24.11;31.69;99050.58;1821878;79;20996;-43
2022/09/12 13:53:21;;;;;;;4.15;1.00;;;;;;;23.83;31.23;99042.69;1822447;79;20996;-42
2022/09/12 13:55:54;;;;;;;2.65;0.88;;;;;;;23.09;32.28;99046.47;1822320;79;20965;-44
2022/09/12 13:58:31;;;;;;;1.42;0.80;;;;;;;22.80;32.83;99045.14;1822388;79;20961;-44
2022/09/12 14:01:11;;;;;;;;;;;;;;;22.14;34.57;99036.73;1824908;79;21000;-38
2022/09/12 14:06:50;;;;;;;2.75;1.20;;;;;;;21.19;35.85;99042.24;1822443;79;21011;-43
2022/09/12 14:09:29;;;;;;;3.55;1.10;;;;;;;21.00;36.77;99049.50;1822261;79;20972;-44
2022/09/12 14:11:57;;;;;;;4.60;1.17;;;;;;;20.60;36.82;99048.19;1822236;79;21039;-43
2022/09/12 14:14:34;;;;;;;5.08;1.82;;;;;;;20.27;37.43;99047.08;1820691;79;20986;-44
2022/09/12 14:17:01;;;;;;;2.62;1.42;;;;;;;19.90;38.88;99047.55;1817040;79;20967;-45
2022/09/12 14:19:28;;;;;;;7.15;1.50;;;;;;;19.51;39.89;99042.39;1814360;78;21046;-43
2022/09/12 14:21:55;;;;;;;2.62;0.95;;;;;;;19.50;39.52;99047.40;1812032;78;20975;-47
2022/09/12 14:24:23;;;;;;;6.37;1.17;;;;;;;19.49;39.85;99053.71;1812087;79;20990;-45
2022/09/12 14:26:51;;;;;;;3.42;1.57;;;;;;;19.25;40.16;99044.91;1811975;79;21583;-39
2022/09/12 14:29:18;;;;;;;3.85;1.30;;;;;;;19.05;41.46;99057.46;1811967;79;20949;-35
2022/09/12 14:31:44;;;;;;;4.15;3.72;;;;;;;18.95;40.79;99050.81;1811916;79;21030;-43
2022/09/12 14:34:14;;;;;;;9.28;3.60;;;;;;;18.75;42.49;99052.64;1812062;79;20995;-47
2022/09/12 14:36:53;;;;;;;5.10;2.37;;;;;;;18.47;41.91;99049.55;1811945;79;21026;-42
2022/09/12 14:39:32;;;;;;;2.75;1.70;;;;;;;18.44;42.11;99052.48;1811829;79;21444;-42
2022/09/12 14:42:12;;;;;;;1.77;1.40;;;;;;;18.52;43.00;99049.47;1811097;79;20976;-42
2022/09/12 14:44:39;;;;;;;4.03;1.40;;;;;;;18.53;42.28;99044.48;1811584;79;20971;-48
2022/09/12 14:47:16;;;;;;;4.58;1.20;;;;;;;18.50;43.02;99053.23;1812128;79;21015;-44
2022/09/12 14:49:42;;;;;;;5.53;1.43;;;;;;;18.50;42.76;99050.58;1811333;79;20939;-48
2022/09/12 14:52:25;;;;;;;2.13;0.80;;;;;;;18.43;43.72;99046.33;1812469;79;21212;-53
2022/09/12 14:54:58;;;;;;;1.27;0.90;;;;;;;18.49;43.22;99054.23;1811960;79;21043;-47
2022/09/12 14:57:35;;;;;;;2.90;0.80;;;;;;;18.42;43.35;99049.95;1812082;79;20987;-44